sensor_id;sensor_type;location;lat;lon;timestamp;P1;durP1;ratioP1;P2;durP2;ratioP2
80559;SDS011;69902;42.660;23.366;2023-05-07T00:01:37;5.78;;;4.28;;
80559;SDS011;69902;42.660;23.366;2023-05-07T00:04:04;6.45;;;4.65;;
80559;SDS011;69902;42.660;23.366;2023-05-07T00:06:30;7.03;;;4.50;;
80559;SDS011;69902;42.660;23.366;2023-05-07T00:08:58;6.05;;;3.92;;
80559;SDS011;69902;42.660;23.366;2023-05-07T00:11:24;7.53;;;4.78;;
80559;SDS011;69902;42.660;23.366;2023-05-07T00:13:51;7.15;;;4.90;;
80559;SDS011;69902;42.660;23.366;2023-05-07T00:16:16;6.95;;;4.20;;
80559;SDS011;69902;42.660;23.366;2023-05-07T00:18:42;6.45;;;4.15;;
80559;SDS011;69902;42.660;23.366;2023-05-07T00:21:08;7.03;;;4.38;;
80559;SDS011;69902;42.660;23.366;2023-05-07T00:23:34;6.88;;;4.50;;
80559;SDS011;69902;42.660;23.366;2023-05-07T00:25:59;6.53;;;4.32;;
80559;SDS011;69902;42.660;23.366;2023-05-07T00:28:25;7.43;;;4.50;;
80559;SDS011;69902;42.660;23.366;2023-05-07T00:30:51;7.32;;;4.47;;
80559;SDS011;69902;42.660;23.366;2023-05-07T00:33:16;6.80;;;4.40;;
80559;SDS011;69902;42.660;23.366;2023-05-07T00:35:42;5.80;;;4.38;;
80559;SDS011;69902;42.660;23.366;2023-05-07T00:38:07;7.47;;;4.53;;
80559;SDS011;69902;42.660;23.366;2023-05-07T00:40:33;6.43;;;4.57;;
80559;SDS011;69902;42.660;23.366;2023-05-07T00:42:59;6.32;;;4.03;;
80559;SDS011;69902;42.660;23.366;2023-05-07T00:45:28;5.88;;;4.10;;
80559;SDS011;69902;42.660;23.366;2023-05-07T00:47:59;6.63;;;4.50;;
80559;SDS011;69902;42.660;23.366;2023-05-07T00:50:26;8.02;;;4.55;;
80559;SDS011;69902;42.660;23.366;2023-05-07T00:52:53;7.65;;;4.30;;
80559;SDS011;69902;42.660;23.366;2023-05-07T00:55:20;6.82;;;4.22;;
80559;SDS011;69902;42.660;23.366;2023-05-07T00:57:46;6.47;;;4.18;;
80559;SDS011;69902;42.660;23.366;2023-05-07T01:00:12;6.47;;;4.13;;
80559;SDS011;69902;42.660;23.366;2023-05-07T01:02:38;6.50;;;4.40;;
80559;SDS011;69902;42.660;23.366;2023-05-07T01:05:05;6.53;;;4.15;;
80559;SDS011;69902;42.660;23.366;2023-05-07T01:07:32;6.50;;;4.32;;
80559;SDS011;69902;42.660;23.366;2023-05-07T01:10:00;5.85;;;4.32;;
80559;SDS011;69902;42.660;23.366;2023-05-07T01:12:26;6.90;;;4.53;;
80559;SDS011;69902;42.660;23.366;2023-05-07T01:14:54;7.03;;;4.53;;
80559;SDS011;69902;42.660;23.366;2023-05-07T01:17:20;6.65;;;4.43;;
80559;SDS011;69902;42.660;23.366;2023-05-07T01:19:46;5.80;;;4.03;;
80559;SDS011;69902;42.660;23.366;2023-05-07T01:22:13;6.35;;;4.53;;
80559;SDS011;69902;42.660;23.366;2023-05-07T01:24:41;6.07;;;4.30;;
80559;SDS011;69902;42.660;23.366;2023-05-07T01:27:08;6.55;;;4.18;;
80559;SDS011;69902;42.660;23.366;2023-05-07T01:29:33;7.47;;;4.20;;
80559;SDS011;69902;42.660;23.366;2023-05-07T01:32:00;6.75;;;4.32;;
80559;SDS011;69902;42.660;23.366;2023-05-07T01:34:30;7.60;;;4.35;;
80559;SDS011;69902;42.660;23.366;2023-05-07T01:36:57;6.23;;;4.37;;
80559;SDS011;69902;42.660;23.366;2023-05-07T01:39:25;5.13;;;3.95;;
80559;SDS011;69902;42.660;23.366;2023-05-07T01:41:56;7.15;;;4.43;;
80559;SDS011;69902;42.660;23.366;2023-05-07T01:44:22;6.95;;;4.05;;
80559;SDS011;69902;42.660;23.366;2023-05-07T01:46:48;5.78;;;3.88;;
80559;SDS011;69902;42.660;23.366;2023-05-07T01:49:15;5.63;;;3.85;;
80559;SDS011;69902;42.660;23.366;2023-05-07T01:51:41;7.63;;;4.20;;
80559;SDS011;69902;42.660;23.366;2023-05-07T01:54:08;7.15;;;4.45;;
80559;SDS011;69902;42.660;23.366;2023-05-07T01:56:34;6.28;;;4.30;;
80559;SDS011;69902;42.660;23.366;2023-05-07T01:59:00;7.70;;;4.15;;
80559;SDS011;69902;42.660;23.366;2023-05-07T02:01:26;6.10;;;3.92;;
80559;SDS011;69902;42.660;23.366;2023-05-07T02:03:52;7.05;;;4.38;;
80559;SDS011;69902;42.660;23.366;2023-05-07T02:06:18;6.93;;;4.40;;
80559;SDS011;69902;42.660;23.366;2023-05-07T02:08:44;6.22;;;3.80;;
80559;SDS011;69902;42.660;23.366;2023-05-07T02:11:11;7.30;;;4.40;;
80559;SDS011;69902;42.660;23.366;2023-05-07T02:13:36;6.60;;;4.13;;
80559;SDS011;69902;42.660;23.366;2023-05-07T02:16:02;6.32;;;4.13;;
80559;SDS011;69902;42.660;23.366;2023-05-07T02:18:28;6.38;;;4.10;;
80559;SDS011;69902;42.660;23.366;2023-05-07T02:20:54;7.82;;;4.15;;
80559;SDS011;69902;42.660;23.366;2023-05-07T02:23:20;6.90;;;4.20;;
80559;SDS011;69902;42.660;23.366;2023-05-07T02:25:45;5.03;;;3.70;;
80559;SDS011;69902;42.660;23.366;2023-05-07T02:28:11;6.35;;;3.70;;
80559;SDS011;69902;42.660;23.366;2023-05-07T02:30:37;7.05;;;4.07;;
80559;SDS011;69902;42.660;23.366;2023-05-07T02:33:04;7.13;;;3.80;;
80559;SDS011;69902;42.660;23.366;2023-05-07T02:35:29;5.43;;;3.78;;
80559;SDS011;69902;42.660;23.366;2023-05-07T02:37:55;5.28;;;3.80;;
80559;SDS011;69902;42.660;23.366;2023-05-07T02:40:21;4.90;;;3.90;;
80559;SDS011;69902;42.660;23.366;2023-05-07T02:42:46;5.50;;;4.13;;
80559;SDS011;69902;42.660;23.366;2023-05-07T02:45:12;5.90;;;4.30;;
80559;SDS011;69902;42.660;23.366;2023-05-07T02:47:39;5.88;;;4.20;;
80559;SDS011;69902;42.660;23.366;2023-05-07T02:50:05;6.38;;;4.10;;
80559;SDS011;69902;42.660;23.366;2023-05-07T02:52:31;4.78;;;3.70;;
80559;SDS011;69902;42.660;23.366;2023-05-07T02:54:57;5.72;;;3.83;;
80559;SDS011;69902;42.660;23.366;2023-05-07T02:57:22;5.00;;;3.58;;
80559;SDS011;69902;42.660;23.366;2023-05-07T02:59:48;5.97;;;4.13;;
80559;SDS011;69902;42.660;23.366;2023-05-07T03:02:13;5.28;;;3.92;;
80559;SDS011;69902;42.660;23.366;2023-05-07T03:04:39;5.35;;;4.30;;
80559;SDS011;69902;42.660;23.366;2023-05-07T03:07:05;5.38;;;3.85;;
80559;SDS011;69902;42.660;23.366;2023-05-07T03:09:31;6.70;;;3.90;;
80559;SDS011;69902;42.660;23.366;2023-05-07T03:11:56;4.35;;;3.78;;
80559;SDS011;69902;42.660;23.366;2023-05-07T03:14:22;4.68;;;3.72;;
80559;SDS011;69902;42.660;23.366;2023-05-07T03:16:48;5.68;;;3.97;;
80559;SDS011;69902;42.660;23.366;2023-05-07T03:19:15;5.20;;;3.95;;
80559;SDS011;69902;42.660;23.366;2023-05-07T03:21:40;4.90;;;3.95;;
80559;SDS011;69902;42.660;23.366;2023-05-07T03:24:06;7.47;;;4.50;;
80559;SDS011;69902;42.660;23.366;2023-05-07T03:26:32;5.13;;;4.03;;
80559;SDS011;69902;42.660;23.366;2023-05-07T03:28:57;5.45;;;4.47;;
80559;SDS011;69902;42.660;23.366;2023-05-07T03:31:23;5.95;;;4.25;;
80559;SDS011;69902;42.660;23.366;2023-05-07T03:33:50;5.88;;;4.20;;
80559;SDS011;69902;42.660;23.366;2023-05-07T03:36:17;4.93;;;3.92;;
80559;SDS011;69902;42.660;23.366;2023-05-07T03:38:43;5.28;;;4.00;;
80559;SDS011;69902;42.660;23.366;2023-05-07T03:41:08;5.40;;;4.32;;
80559;SDS011;69902;42.660;23.366;2023-05-07T03:43:34;5.82;;;4.25;;
80559;SDS011;69902;42.660;23.366;2023-05-07T03:46:00;5.88;;;4.07;;
80559;SDS011;69902;42.660;23.366;2023-05-07T03:48:26;5.50;;;4.10;;
80559;SDS011;69902;42.660;23.366;2023-05-07T03:50:51;6.90;;;4.32;;
80559;SDS011;69902;42.660;23.366;2023-05-07T03:53:17;5.10;;;4.00;;
80559;SDS011;69902;42.660;23.366;2023-05-07T03:55:42;6.55;;;4.00;;
80559;SDS011;69902;42.660;23.366;2023-05-07T03:58:08;6.80;;;4.30;;
80559;SDS011;69902;42.660;23.366;2023-05-07T04:00:34;5.63;;;4.18;;
80559;SDS011;69902;42.660;23.366;2023-05-07T04:03:03;6.10;;;4.47;;
80559;SDS011;69902;42.660;23.366;2023-05-07T04:05:30;5.68;;;4.07;;
80559;SDS011;69902;42.660;23.366;2023-05-07T04:07:57;5.63;;;4.10;;
80559;SDS011;69902;42.660;23.366;2023-05-07T04:10:23;6.50;;;4.30;;
80559;SDS011;69902;42.660;23.366;2023-05-07T04:12:49;5.15;;;4.00;;
80559;SDS011;69902;42.660;23.366;2023-05-07T04:15:15;5.82;;;4.25;;
80559;SDS011;69902;42.660;23.366;2023-05-07T04:17:41;5.70;;;4.53;;
80559;SDS011;69902;42.660;23.366;2023-05-07T04:20:08;6.10;;;4.38;;
80559;SDS011;69902;42.660;23.366;2023-05-07T04:22:35;5.65;;;4.43;;
80559;SDS011;69902;42.660;23.366;2023-05-07T04:25:01;5.30;;;4.28;;
80559;SDS011;69902;42.660;23.366;2023-05-07T04:27:27;5.03;;;4.22;;
80559;SDS011;69902;42.660;23.366;2023-05-07T04:29:53;5.75;;;4.15;;
80559;SDS011;69902;42.660;23.366;2023-05-07T04:32:21;6.70;;;4.38;;
80559;SDS011;69902;42.660;23.366;2023-05-07T04:34:47;5.38;;;4.22;;
80559;SDS011;69902;42.660;23.366;2023-05-07T04:37:13;4.90;;;4.07;;
80559;SDS011;69902;42.660;23.366;2023-05-07T04:39:38;6.13;;;4.40;;
80559;SDS011;69902;42.660;23.366;2023-05-07T04:42:04;5.30;;;4.18;;
80559;SDS011;69902;42.660;23.366;2023-05-07T04:44:32;4.78;;;3.80;;
80559;SDS011;69902;42.660;23.366;2023-05-07T04:46:59;5.88;;;4.43;;
80559;SDS011;69902;42.660;23.366;2023-05-07T04:49:25;5.50;;;3.92;;
80559;SDS011;69902;42.660;23.366;2023-05-07T04:51:50;4.82;;;4.00;;
80559;SDS011;69902;42.660;23.366;2023-05-07T04:54:16;5.63;;;4.20;;
80559;SDS011;69902;42.660;23.366;2023-05-07T04:56:42;5.82;;;4.00;;
80559;SDS011;69902;42.660;23.366;2023-05-07T04:59:07;5.07;;;4.25;;
80559;SDS011;69902;42.660;23.366;2023-05-07T05:01:33;6.07;;;4.65;;
80559;SDS011;69902;42.660;23.366;2023-05-07T05:03:58;5.18;;;4.18;;
80559;SDS011;69902;42.660;23.366;2023-05-07T05:06:25;6.35;;;4.32;;
80559;SDS011;69902;42.660;23.366;2023-05-07T05:08:51;5.85;;;4.50;;
80559;SDS011;69902;42.660;23.366;2023-05-07T05:11:16;5.53;;;4.32;;
80559;SDS011;69902;42.660;23.366;2023-05-07T05:13:42;6.05;;;4.32;;
80559;SDS011;69902;42.660;23.366;2023-05-07T05:16:08;5.50;;;4.30;;
80559;SDS011;69902;42.660;23.366;2023-05-07T05:18:34;5.60;;;4.40;;
80559;SDS011;69902;42.660;23.366;2023-05-07T05:20:59;5.90;;;4.63;;
80559;SDS011;69902;42.660;23.366;2023-05-07T05:23:25;5.80;;;4.70;;
80559;SDS011;69902;42.660;23.366;2023-05-07T05:25:55;5.75;;;4.43;;
80559;SDS011;69902;42.660;23.366;2023-05-07T05:28:22;6.05;;;4.80;;
80559;SDS011;69902;42.660;23.366;2023-05-07T05:30:48;5.68;;;4.32;;
80559;SDS011;69902;42.660;23.366;2023-05-07T05:33:14;6.25;;;4.78;;
80559;SDS011;69902;42.660;23.366;2023-05-07T05:35:40;7.72;;;4.57;;
80559;SDS011;69902;42.660;23.366;2023-05-07T05:38:06;6.90;;;4.93;;
80559;SDS011;69902;42.660;23.366;2023-05-07T05:40:32;7.22;;;5.22;;
80559;SDS011;69902;42.660;23.366;2023-05-07T05:42:58;6.00;;;4.50;;
80559;SDS011;69902;42.660;23.366;2023-05-07T05:45:24;5.55;;;4.60;;
80559;SDS011;69902;42.660;23.366;2023-05-07T05:47:50;6.65;;;4.95;;
80559;SDS011;69902;42.660;23.366;2023-05-07T05:50:15;7.93;;;5.07;;
80559;SDS011;69902;42.660;23.366;2023-05-07T05:52:41;6.82;;;5.15;;
80559;SDS011;69902;42.660;23.366;2023-05-07T05:55:07;6.60;;;5.07;;
80559;SDS011;69902;42.660;23.366;2023-05-07T05:57:33;7.03;;;4.88;;
80559;SDS011;69902;42.660;23.366;2023-05-07T05:59:59;7.57;;;5.32;;
80559;SDS011;69902;42.660;23.366;2023-05-07T06:02:26;6.85;;;5.03;;
80559;SDS011;69902;42.660;23.366;2023-05-07T06:04:52;6.90;;;5.00;;
80559;SDS011;69902;42.660;23.366;2023-05-07T06:07:17;7.43;;;5.03;;
80559;SDS011;69902;42.660;23.366;2023-05-07T06:09:43;7.15;;;4.95;;
80559;SDS011;69902;42.660;23.366;2023-05-07T06:12:09;5.82;;;4.32;;
80559;SDS011;69902;42.660;23.366;2023-05-07T06:14:34;7.38;;;4.97;;
80559;SDS011;69902;42.660;23.366;2023-05-07T06:17:00;6.05;;;4.57;;
80559;SDS011;69902;42.660;23.366;2023-05-07T06:19:26;6.72;;;4.95;;
80559;SDS011;69902;42.660;23.366;2023-05-07T06:21:53;6.25;;;4.82;;
80559;SDS011;69902;42.660;23.366;2023-05-07T06:24:19;6.50;;;4.53;;
80559;SDS011;69902;42.660;23.366;2023-05-07T06:26:44;6.18;;;4.60;;
80559;SDS011;69902;42.660;23.366;2023-05-07T06:29:10;5.63;;;4.55;;
80559;SDS011;69902;42.660;23.366;2023-05-07T06:31:36;6.10;;;4.57;;
80559;SDS011;69902;42.660;23.366;2023-05-07T06:34:01;7.00;;;4.70;;
80559;SDS011;69902;42.660;23.366;2023-05-07T06:36:28;5.53;;;4.38;;
80559;SDS011;69902;42.660;23.366;2023-05-07T06:38:53;8.23;;;5.47;;
80559;SDS011;69902;42.660;23.366;2023-05-07T06:41:19;6.18;;;4.70;;
80559;SDS011;69902;42.660;23.366;2023-05-07T06:43:45;7.18;;;4.97;;
80559;SDS011;69902;42.660;23.366;2023-05-07T06:46:11;5.80;;;4.45;;
80559;SDS011;69902;42.660;23.366;2023-05-07T06:48:36;6.63;;;4.60;;
80559;SDS011;69902;42.660;23.366;2023-05-07T06:51:02;7.18;;;4.50;;
80559;SDS011;69902;42.660;23.366;2023-05-07T06:53:28;7.85;;;5.10;;
80559;SDS011;69902;42.660;23.366;2023-05-07T06:55:55;8.30;;;5.30;;
80559;SDS011;69902;42.660;23.366;2023-05-07T06:58:21;5.75;;;4.45;;
80559;SDS011;69902;42.660;23.366;2023-05-07T07:00:47;6.03;;;4.80;;
80559;SDS011;69902;42.660;23.366;2023-05-07T07:03:13;7.00;;;4.90;;
80559;SDS011;69902;42.660;23.366;2023-05-07T07:05:40;9.10;;;5.50;;
80559;SDS011;69902;42.660;23.366;2023-05-07T07:08:06;6.05;;;4.40;;
80559;SDS011;69902;42.660;23.366;2023-05-07T07:10:32;9.35;;;5.65;;
80559;SDS011;69902;42.660;23.366;2023-05-07T07:12:58;7.82;;;5.05;;
80559;SDS011;69902;42.660;23.366;2023-05-07T07:15:23;6.57;;;4.75;;
80559;SDS011;69902;42.660;23.366;2023-05-07T07:17:50;8.30;;;5.55;;
80559;SDS011;69902;42.660;23.366;2023-05-07T07:20:16;7.18;;;5.15;;
80559;SDS011;69902;42.660;23.366;2023-05-07T07:22:42;9.32;;;5.40;;
80559;SDS011;69902;42.660;23.366;2023-05-07T07:25:07;8.23;;;5.18;;
80559;SDS011;69902;42.660;23.366;2023-05-07T07:27:33;8.23;;;5.28;;
80559;SDS011;69902;42.660;23.366;2023-05-07T07:29:59;6.85;;;4.80;;
80559;SDS011;69902;42.660;23.366;2023-05-07T07:32:25;6.80;;;5.30;;
80559;SDS011;69902;42.660;23.366;2023-05-07T07:34:51;6.55;;;4.88;;
80559;SDS011;69902;42.660;23.366;2023-05-07T07:37:16;7.15;;;5.25;;
80559;SDS011;69902;42.660;23.366;2023-05-07T07:39:42;8.52;;;5.72;;
80559;SDS011;69902;42.660;23.366;2023-05-07T07:42:08;7.05;;;5.10;;
80559;SDS011;69902;42.660;23.366;2023-05-07T07:44:33;7.68;;;5.18;;
80559;SDS011;69902;42.660;23.366;2023-05-07T07:46:59;8.90;;;5.28;;
80559;SDS011;69902;42.660;23.366;2023-05-07T07:49:25;8.45;;;5.65;;
80559;SDS011;69902;42.660;23.366;2023-05-07T07:51:51;7.60;;;5.00;;
80559;SDS011;69902;42.660;23.366;2023-05-07T07:54:17;7.38;;;5.30;;
80559;SDS011;69902;42.660;23.366;2023-05-07T07:56:43;16.05;;;10.43;;
80559;SDS011;69902;42.660;23.366;2023-05-07T07:59:08;105.00;;;37.40;;
80559;SDS011;69902;42.660;23.366;2023-05-07T08:01:34;233.40;;;46.08;;
80559;SDS011;69902;42.660;23.366;2023-05-07T08:04:00;213.85;;;43.17;;
80559;SDS011;69902;42.660;23.366;2023-05-07T08:06:28;146.63;;;35.92;;
80559;SDS011;69902;42.660;23.366;2023-05-07T08:08:54;96.03;;;29.92;;
80559;SDS011;69902;42.660;23.366;2023-05-07T08:11:20;97.80;;;26.58;;
80559;SDS011;69902;42.660;23.366;2023-05-07T08:13:46;74.15;;;24.20;;
80559;SDS011;69902;42.660;23.366;2023-05-07T08:16:12;84.30;;;24.17;;
80559;SDS011;69902;42.660;23.366;2023-05-07T08:18:38;103.80;;;25.88;;
80559;SDS011;69902;42.660;23.366;2023-05-07T08:21:03;58.22;;;19.60;;
80559;SDS011;69902;42.660;23.366;2023-05-07T08:23:29;48.47;;;20.65;;
80559;SDS011;69902;42.660;23.366;2023-05-07T08:25:55;51.17;;;18.27;;
80559;SDS011;69902;42.660;23.366;2023-05-07T08:28:21;47.35;;;17.45;;
80559;SDS011;69902;42.660;23.366;2023-05-07T08:30:47;31.30;;;14.55;;
80559;SDS011;69902;42.660;23.366;2023-05-07T08:33:12;52.40;;;17.83;;
80559;SDS011;69902;42.660;23.366;2023-05-07T08:35:38;35.88;;;16.08;;
80559;SDS011;69902;42.660;23.366;2023-05-07T08:38:04;43.85;;;18.10;;
80559;SDS011;69902;42.660;23.366;2023-05-07T08:40:29;38.00;;;15.70;;
80559;SDS011;69902;42.660;23.366;2023-05-07T08:43:01;28.85;;;13.50;;
80559;SDS011;69902;42.660;23.366;2023-05-07T08:45:28;35.75;;;15.95;;
80559;SDS011;69902;42.660;23.366;2023-05-07T08:47:58;46.75;;;17.17;;
80559;SDS011;69902;42.660;23.366;2023-05-07T08:50:25;34.42;;;15.00;;
80559;SDS011;69902;42.660;23.366;2023-05-07T08:52:50;33.72;;;14.55;;
80559;SDS011;69902;42.660;23.366;2023-05-07T08:55:16;26.15;;;13.75;;
80559;SDS011;69902;42.660;23.366;2023-05-07T08:57:42;19.38;;;12.18;;
80559;SDS011;69902;42.660;23.366;2023-05-07T09:00:08;16.30;;;10.60;;
80559;SDS011;69902;42.660;23.366;2023-05-07T09:02:35;25.17;;;12.50;;
80559;SDS011;69902;42.660;23.366;2023-05-07T09:05:01;15.90;;;10.20;;
80559;SDS011;69902;42.660;23.366;2023-05-07T09:07:27;15.68;;;9.23;;
80559;SDS011;69902;42.660;23.366;2023-05-07T09:09:53;21.05;;;12.07;;
80559;SDS011;69902;42.660;23.366;2023-05-07T09:12:20;20.17;;;12.52;;
80559;SDS011;69902;42.660;23.366;2023-05-07T09:14:46;23.85;;;11.00;;
80559;SDS011;69902;42.660;23.366;2023-05-07T09:17:12;21.42;;;10.57;;
80559;SDS011;69902;42.660;23.366;2023-05-07T09:19:38;16.73;;;10.35;;
80559;SDS011;69902;42.660;23.366;2023-05-07T09:22:04;15.98;;;10.15;;
80559;SDS011;69902;42.660;23.366;2023-05-07T09:24:32;14.15;;;8.88;;
80559;SDS011;69902;42.660;23.366;2023-05-07T09:27:03;14.88;;;10.10;;
80559;SDS011;69902;42.660;23.366;2023-05-07T09:29:33;15.38;;;9.93;;
80559;SDS011;69902;42.660;23.366;2023-05-07T09:32:02;15.10;;;10.40;;
80559;SDS011;69902;42.660;23.366;2023-05-07T09:34:31;16.05;;;9.10;;
80559;SDS011;69902;42.660;23.366;2023-05-07T09:36:58;14.48;;;9.75;;
80559;SDS011;69902;42.660;23.366;2023-05-07T09:39:26;13.60;;;10.15;;
80559;SDS011;69902;42.660;23.366;2023-05-07T09:41:51;14.32;;;9.18;;
80559;SDS011;69902;42.660;23.366;2023-05-07T09:44:20;15.02;;;9.75;;
80559;SDS011;69902;42.660;23.366;2023-05-07T09:46:47;13.48;;;9.40;;
80559;SDS011;69902;42.660;23.366;2023-05-07T09:49:23;12.10;;;9.93;;
80559;SDS011;69902;42.660;23.366;2023-05-07T09:51:50;15.48;;;10.93;;
80559;SDS011;69902;42.660;23.366;2023-05-07T09:54:17;12.30;;;10.00;;
80559;SDS011;69902;42.660;23.366;2023-05-07T09:56:44;11.80;;;8.70;;
80559;SDS011;69902;42.660;23.366;2023-05-07T09:59:12;10.70;;;9.23;;
80559;SDS011;69902;42.660;23.366;2023-05-07T10:01:39;13.85;;;10.63;;
80559;SDS011;69902;42.660;23.366;2023-05-07T10:04:07;15.02;;;11.65;;
80559;SDS011;69902;42.660;23.366;2023-05-07T10:06:36;13.02;;;10.50;;
80559;SDS011;69902;42.660;23.366;2023-05-07T10:09:05;13.95;;;10.10;;
80559;SDS011;69902;42.660;23.366;2023-05-07T10:11:34;12.02;;;10.25;;
80559;SDS011;69902;42.660;23.366;2023-05-07T10:14:01;8.68;;;7.75;;
80559;SDS011;69902;42.660;23.366;2023-05-07T10:16:28;11.13;;;7.65;;
80559;SDS011;69902;42.660;23.366;2023-05-07T10:18:57;8.63;;;7.15;;
80559;SDS011;69902;42.660;23.366;2023-05-07T10:21:23;12.00;;;8.13;;
80559;SDS011;69902;42.660;23.366;2023-05-07T10:23:58;9.82;;;7.97;;
80559;SDS011;69902;42.660;23.366;2023-05-07T10:26:28;10.07;;;8.02;;
80559;SDS011;69902;42.660;23.366;2023-05-07T10:28:59;10.10;;;8.98;;
80559;SDS011;69902;42.660;23.366;2023-05-07T10:31:41;11.70;;;9.40;;
80559;SDS011;69902;42.660;23.366;2023-05-07T10:34:13;11.65;;;9.52;;
80559;SDS011;69902;42.660;23.366;2023-05-07T10:36:42;11.75;;;9.90;;
80559;SDS011;69902;42.660;23.366;2023-05-07T10:39:09;9.35;;;7.82;;
80559;SDS011;69902;42.660;23.366;2023-05-07T10:41:35;11.02;;;8.98;;
80559;SDS011;69902;42.660;23.366;2023-05-07T10:44:01;10.07;;;8.90;;
80559;SDS011;69902;42.660;23.366;2023-05-07T10:46:28;10.98;;;8.80;;
80559;SDS011;69902;42.660;23.366;2023-05-07T10:51:26;9.75;;;8.38;;
80559;SDS011;69902;42.660;23.366;2023-05-07T10:56:36;11.55;;;7.93;;
80559;SDS011;69902;42.660;23.366;2023-05-07T11:01:55;12.18;;;9.20;;
80559;SDS011;69902;42.660;23.366;2023-05-07T11:04:29;8.82;;;6.78;;
80559;SDS011;69902;42.660;23.366;2023-05-07T11:10:04;9.50;;;6.25;;
80559;SDS011;69902;42.660;23.366;2023-05-07T11:15:04;7.13;;;5.78;;
80559;SDS011;69902;42.660;23.366;2023-05-07T11:17:34;8.02;;;7.00;;
80559;SDS011;69902;42.660;23.366;2023-05-07T11:20:17;9.88;;;6.93;;
80559;SDS011;69902;42.660;23.366;2023-05-07T11:22:43;9.35;;;7.47;;
80559;SDS011;69902;42.660;23.366;2023-05-07T11:25:09;14.35;;;9.90;;
80559;SDS011;69902;42.660;23.366;2023-05-07T11:27:35;10.02;;;8.02;;
80559;SDS011;69902;42.660;23.366;2023-05-07T11:30:02;9.40;;;7.68;;
80559;SDS011;69902;42.660;23.366;2023-05-07T11:32:29;9.95;;;8.27;;
80559;SDS011;69902;42.660;23.366;2023-05-07T11:34:56;10.82;;;8.40;;
80559;SDS011;69902;42.660;23.366;2023-05-07T11:37:24;10.10;;;8.38;;
80559;SDS011;69902;42.660;23.366;2023-05-07T11:40:01;9.60;;;8.25;;
80559;SDS011;69902;42.660;23.366;2023-05-07T11:42:29;13.52;;;8.40;;
80559;SDS011;69902;42.660;23.366;2023-05-07T11:44:56;10.30;;;7.75;;
80559;SDS011;69902;42.660;23.366;2023-05-07T11:47:22;9.38;;;7.47;;
80559;SDS011;69902;42.660;23.366;2023-05-07T11:49:49;8.70;;;7.38;;
80559;SDS011;69902;42.660;23.366;2023-05-07T11:52:16;9.63;;;7.18;;
80559;SDS011;69902;42.660;23.366;2023-05-07T11:54:53;8.85;;;7.35;;
80559;SDS011;69902;42.660;23.366;2023-05-07T11:57:24;9.77;;;7.32;;
80559;SDS011;69902;42.660;23.366;2023-05-07T11:59:54;9.70;;;7.45;;
80559;SDS011;69902;42.660;23.366;2023-05-07T12:02:20;10.32;;;7.80;;
80559;SDS011;69902;42.660;23.366;2023-05-07T12:04:46;8.52;;;7.55;;
80559;SDS011;69902;42.660;23.366;2023-05-07T12:07:12;7.25;;;6.35;;
80559;SDS011;69902;42.660;23.366;2023-05-07T12:09:41;9.27;;;7.47;;
80559;SDS011;69902;42.660;23.366;2023-05-07T12:12:07;9.20;;;7.85;;
80559;SDS011;69902;42.660;23.366;2023-05-07T12:14:37;10.88;;;8.52;;
80559;SDS011;69902;42.660;23.366;2023-05-07T12:17:10;10.90;;;9.10;;
80559;SDS011;69902;42.660;23.366;2023-05-07T12:19:37;11.23;;;8.90;;
80559;SDS011;69902;42.660;23.366;2023-05-07T12:22:04;11.48;;;9.45;;
80559;SDS011;69902;42.660;23.366;2023-05-07T12:24:46;11.38;;;8.70;;
80559;SDS011;69902;42.660;23.366;2023-05-07T12:27:21;11.43;;;10.18;;
80559;SDS011;69902;42.660;23.366;2023-05-07T12:29:48;12.25;;;9.35;;
80559;SDS011;69902;42.660;23.366;2023-05-07T12:32:15;12.50;;;9.80;;
80559;SDS011;69902;42.660;23.366;2023-05-07T12:34:49;11.27;;;10.02;;
80559;SDS011;69902;42.660;23.366;2023-05-07T12:37:16;11.30;;;9.55;;
80559;SDS011;69902;42.660;23.366;2023-05-07T12:39:47;12.00;;;8.30;;
80559;SDS011;69902;42.660;23.366;2023-05-07T12:42:16;11.07;;;9.23;;
80559;SDS011;69902;42.660;23.366;2023-05-07T12:44:45;10.20;;;8.40;;
80559;SDS011;69902;42.660;23.366;2023-05-07T12:47:11;10.43;;;9.07;;
80559;SDS011;69902;42.660;23.366;2023-05-07T12:49:37;13.48;;;9.60;;
80559;SDS011;69902;42.660;23.366;2023-05-07T12:52:04;13.23;;;10.50;;
80559;SDS011;69902;42.660;23.366;2023-05-07T12:54:30;12.70;;;10.13;;
80559;SDS011;69902;42.660;23.366;2023-05-07T12:57:07;9.18;;;7.80;;
80559;SDS011;69902;42.660;23.366;2023-05-07T12:59:34;10.85;;;8.48;;
80559;SDS011;69902;42.660;23.366;2023-05-07T13:02:07;9.63;;;7.97;;
80559;SDS011;69902;42.660;23.366;2023-05-07T13:04:33;10.77;;;8.18;;
80559;SDS011;69902;42.660;23.366;2023-05-07T13:07:00;12.20;;;9.18;;
80559;SDS011;69902;42.660;23.366;2023-05-07T13:09:26;8.82;;;6.75;;
80559;SDS011;69902;42.660;23.366;2023-05-07T13:11:54;11.25;;;8.75;;
80559;SDS011;69902;42.660;23.366;2023-05-07T13:14:20;7.85;;;6.40;;
80559;SDS011;69902;42.660;23.366;2023-05-07T13:16:48;10.23;;;8.10;;
80559;SDS011;69902;42.660;23.366;2023-05-07T13:19:14;10.98;;;8.57;;
80559;SDS011;69902;42.660;23.366;2023-05-07T13:21:40;11.13;;;8.57;;
80559;SDS011;69902;42.660;23.366;2023-05-07T13:24:05;11.18;;;9.02;;
80559;SDS011;69902;42.660;23.366;2023-05-07T13:26:31;9.77;;;7.18;;
80559;SDS011;69902;42.660;23.366;2023-05-07T13:28:57;9.45;;;6.28;;
80559;SDS011;69902;42.660;23.366;2023-05-07T13:31:23;7.97;;;6.20;;
80559;SDS011;69902;42.660;23.366;2023-05-07T13:33:49;9.48;;;6.75;;
80559;SDS011;69902;42.660;23.366;2023-05-07T13:36:15;10.90;;;8.65;;
80559;SDS011;69902;42.660;23.366;2023-05-07T13:38:41;12.52;;;9.45;;
80559;SDS011;69902;42.660;23.366;2023-05-07T13:41:06;11.95;;;8.43;;
80559;SDS011;69902;42.660;23.366;2023-05-07T13:43:32;11.50;;;9.38;;
80559;SDS011;69902;42.660;23.366;2023-05-07T13:45:58;11.20;;;9.52;;
80559;SDS011;69902;42.660;23.366;2023-05-07T13:48:25;11.63;;;7.47;;
80559;SDS011;69902;42.660;23.366;2023-05-07T13:50:50;10.48;;;8.57;;
80559;SDS011;69902;42.660;23.366;2023-05-07T13:53:17;10.95;;;9.40;;
80559;SDS011;69902;42.660;23.366;2023-05-07T13:55:43;10.05;;;7.85;;
80559;SDS011;69902;42.660;23.366;2023-05-07T13:58:09;11.13;;;8.40;;
80559;SDS011;69902;42.660;23.366;2023-05-07T14:00:36;9.85;;;7.43;;
80559;SDS011;69902;42.660;23.366;2023-05-07T14:03:02;11.07;;;8.88;;
80559;SDS011;69902;42.660;23.366;2023-05-07T14:05:29;13.50;;;10.85;;
80559;SDS011;69902;42.660;23.366;2023-05-07T14:07:58;15.10;;;12.02;;
80559;SDS011;69902;42.660;23.366;2023-05-07T14:10:24;12.00;;;9.40;;
80559;SDS011;69902;42.660;23.366;2023-05-07T14:12:50;9.77;;;7.72;;
80559;SDS011;69902;42.660;23.366;2023-05-07T14:15:16;9.25;;;6.38;;
80559;SDS011;69902;42.660;23.366;2023-05-07T14:17:42;12.02;;;8.18;;
80559;SDS011;69902;42.660;23.366;2023-05-07T14:20:08;8.35;;;6.65;;
80559;SDS011;69902;42.660;23.366;2023-05-07T14:22:35;7.70;;;5.72;;
80559;SDS011;69902;42.660;23.366;2023-05-07T14:25:01;10.85;;;8.73;;
80559;SDS011;69902;42.660;23.366;2023-05-07T14:27:26;8.70;;;7.40;;
80559;SDS011;69902;42.660;23.366;2023-05-07T14:29:52;11.98;;;8.90;;
80559;SDS011;69902;42.660;23.366;2023-05-07T14:32:18;12.38;;;9.40;;
80559;SDS011;69902;42.660;23.366;2023-05-07T14:34:44;12.68;;;10.30;;
80559;SDS011;69902;42.660;23.366;2023-05-07T14:37:10;13.55;;;11.27;;
80559;SDS011;69902;42.660;23.366;2023-05-07T14:39:36;12.65;;;11.35;;